N12KBM KLAX-KSNA
Flight info
| Callsign | N12KBM |
|---|---|
| Flight time | 0h 17m |
| Altitude | VFR/035 |
| Route | |
| Aircraft | VL3/L-VGD/C |
Departure
| Time | 2026-04-21 01:14 |
|---|---|
| Airport | Los Angeles International Airport (KLAX) |
Arrival
| Time | 2026-04-21 01:31 |
|---|---|
| Airport | John Wayne Orange County International Airport (KSNA) |
| Time | Latitude | Longitude | Altitude | Speed | Heading |
|---|---|---|---|---|---|
| 2026-04-21 01:14 | 33.88985 | -118.27603 | 1810 ft | 104 kts | 130° |
| 2026-04-21 01:14 | 33.88549 | -118.26904 | 2047 ft | 107 kts | 129° |
| 2026-04-21 01:14 | 33.88088 | -118.26225 | 2276 ft | 100 kts | 134° |
| 2026-04-21 01:15 | 33.87639 | -118.25622 | 2648 ft | 92 kts | 136° |
| 2026-04-21 01:15 | 33.87202 | -118.25040 | 2876 ft | 106 kts | 132° |
| 2026-04-21 01:15 | 33.86719 | -118.24348 | 2874 ft | 109 kts | 136° |
| 2026-04-21 01:15 | 33.86200 | -118.23659 | 2794 ft | 116 kts | 132° |
| 2026-04-21 01:16 | 33.85700 | -118.22915 | 2773 ft | 113 kts | 133° |
| 2026-04-21 01:16 | 33.85204 | -118.22205 | 2855 ft | 110 kts | 137° |
| 2026-04-21 01:16 | 33.84635 | -118.21596 | 2882 ft | 109 kts | 148° |
| 2026-04-21 01:16 | 33.83980 | -118.21139 | 2896 ft | 109 kts | 156° |
| 2026-04-21 01:17 | 33.83281 | -118.20825 | 2936 ft | 106 kts | 169° |
| 2026-04-21 01:17 | 33.82531 | -118.20677 | 2853 ft | 109 kts | 166° |
| 2026-04-21 01:17 | 33.81981 | -118.20057 | 2817 ft | 117 kts | 117° |
| 2026-04-21 01:17 | 33.81697 | -118.19169 | 2887 ft | 110 kts | 114° |
| 2026-04-21 01:18 | 33.81399 | -118.18328 | 2984 ft | 111 kts | 116° |
| 2026-04-21 01:18 | 33.81071 | -118.17483 | 2943 ft | 117 kts | 118° |
| 2026-04-21 01:18 | 33.80717 | -118.16580 | 2746 ft | 122 kts | 116° |
| 2026-04-21 01:18 | 33.80406 | -118.15648 | 2575 ft | 115 kts | 115° |
| 2026-04-21 01:19 | 33.80107 | -118.14777 | 2374 ft | 114 kts | 115° |
| 2026-04-21 01:19 | 33.79808 | -118.13906 | 2215 ft | 111 kts | 116° |
| 2026-04-21 01:19 | 33.79526 | -118.13038 | 2166 ft | 109 kts | 114° |
| 2026-04-21 01:19 | 33.79220 | -118.12198 | 2033 ft | 111 kts | 118° |
| 2026-04-21 01:20 | 33.78912 | -118.11378 | 2040 ft | 105 kts | 115° |
| 2026-04-21 01:20 | 33.78626 | -118.10567 | 2033 ft | 105 kts | 117° |
| 2026-04-21 01:20 | 33.78323 | -118.09735 | 2011 ft | 109 kts | 112° |
| 2026-04-21 01:20 | 33.78112 | -118.08869 | 2072 ft | 102 kts | 105° |
| 2026-04-21 01:21 | 33.78004 | -118.08053 | 2199 ft | 101 kts | 99° |
| 2026-04-21 01:21 | 33.77962 | -118.07192 | 2261 ft | 107 kts | 89° |
| 2026-04-21 01:21 | 33.77989 | -118.06227 | 1746 ft | 124 kts | 94° |
| 2026-04-21 01:21 | 33.77896 | -118.05227 | 1403 ft | 111 kts | 103° |
| 2026-04-21 01:22 | 33.77670 | -118.04351 | 1156 ft | 111 kts | 119° |
| 2026-04-21 01:22 | 33.77386 | -118.03536 | 1032 ft | 105 kts | 119° |
| 2026-04-21 01:22 | 33.76933 | -118.02840 | 729 ft | 108 kts | 146° |
| 2026-04-21 01:22 | 33.76597 | -118.02198 | 1028 ft | 86 kts | 110° |
| 2026-04-21 01:23 | 33.76511 | -118.01471 | 1442 ft | 93 kts | 98° |
| 2026-04-21 01:23 | 33.76455 | -118.00672 | 1805 ft | 99 kts | 96° |
| 2026-04-21 01:23 | 33.76475 | -117.99859 | 2325 ft | 67 kts | 71° |
| 2026-04-21 01:23 | 33.76852 | -117.99434 | 2626 ft | 106 kts | 59° |
| 2026-04-21 01:24 | 33.76934 | -117.98557 | 2768 ft | 105 kts | 95° |
| 2026-04-21 01:24 | 33.76856 | -117.97657 | 2811 ft | 112 kts | 103° |
| 2026-04-21 01:24 | 33.76682 | -117.96742 | 2860 ft | 111 kts | 107° |
| 2026-04-21 01:24 | 33.76443 | -117.95879 | 2979 ft | 107 kts | 115° |
| 2026-04-21 01:25 | 33.76245 | -117.95040 | 3120 ft | 106 kts | 108° |
| 2026-04-21 01:25 | 33.76118 | -117.94181 | 3135 ft | 103 kts | 104° |
| 2026-04-21 01:25 | 33.75980 | -117.93333 | 2803 ft | 101 kts | 104° |
| 2026-04-21 01:25 | 33.75807 | -117.92517 | 2379 ft | 96 kts | 109° |
| 2026-04-21 01:26 | 33.75611 | -117.91723 | 2139 ft | 94 kts | 110° |
| 2026-04-21 01:26 | 33.75410 | -117.90933 | 2036 ft | 101 kts | 105° |
| 2026-04-21 01:26 | 33.75211 | -117.90112 | 1916 ft | 104 kts | 119° |
| 2026-04-21 01:26 | 33.74877 | -117.89331 | 1836 ft | 104 kts | 123° |
| 2026-04-21 01:27 | 33.74549 | -117.88582 | 1820 ft | 100 kts | 122° |
| 2026-04-21 01:27 | 33.74280 | -117.87812 | 1816 ft | 100 kts | 114° |
| 2026-04-21 01:27 | 33.74021 | -117.87023 | 1686 ft | 99 kts | 116° |
| 2026-04-21 01:27 | 33.73834 | -117.86278 | 1547 ft | 90 kts | 106° |
| 2026-04-21 01:28 | 33.73643 | -117.85576 | 1463 ft | 85 kts | 114° |
| 2026-04-21 01:28 | 33.73456 | -117.84898 | 1366 ft | 90 kts | 113° |
| 2026-04-21 01:28 | 33.73257 | -117.84177 | 1232 ft | 89 kts | 113° |
| 2026-04-21 01:28 | 33.73058 | -117.83501 | 1189 ft | 85 kts | 116° |
| 2026-04-21 01:29 | 33.72626 | -117.83278 | 976 ft | 70 kts | 200° |
| 2026-04-21 01:29 | 33.72169 | -117.83529 | 816 ft | 83 kts | 206° |
| 2026-04-21 01:29 | 33.71622 | -117.83858 | 764 ft | 90 kts | 209° |
| 2026-04-21 01:29 | 33.71071 | -117.84264 | 691 ft | 97 kts | 213° |
| 2026-04-21 01:30 | 33.70595 | -117.84616 | 514 ft | 66 kts | 213° |
| 2026-04-21 01:30 | 33.70206 | -117.84916 | 397 ft | 68 kts | 216° |
| 2026-04-21 01:30 | 33.69797 | -117.85230 | 299 ft | 72 kts | 215° |
| 2026-04-21 01:30 | 33.69351 | -117.85556 | 250 ft | 79 kts | 216° |
| 2026-04-21 01:31 | 33.68868 | -117.85872 | 152 ft | 88 kts | 209° |
| 2026-04-21 01:31 | 33.68349 | -117.86196 | 93 ft | 66 kts | 213° |
| 2026-04-21 01:31 | 33.68039 | -117.86397 | 47 ft | 38 kts | 217° |
| 2026-04-21 01:31 | 33.67870 | -117.86505 | 51 ft | 32 kts | 208° |
| 2026-04-21 01:32 | 33.67721 | -117.86594 | 57 ft | 14 kts | 178° |
| 2026-04-21 01:32 | 33.67703 | -117.86587 | 57 ft | 0 kts | 145° |
| 2026-04-21 01:32 | 33.67702 | -117.86587 | 57 ft | 1 kts | 145° |
| 2026-04-21 01:32 | 33.67691 | -117.86568 | 56 ft | 0 kts | 113° |
| 2026-04-21 01:34 | 33.67689 | -117.86564 | 56 ft | 5 kts | 118° |
| 2026-04-21 01:34 | 33.67638 | -117.86518 | 55 ft | 16 kts | 202° |
| 2026-04-21 01:34 | 33.67548 | -117.86563 | 56 ft | 12 kts | 205° |
| 2026-04-21 01:34 | 33.67473 | -117.86555 | 54 ft | 13 kts | 164° |
| 2026-04-21 01:35 | 33.67444 | -117.86513 | 53 ft | 12 kts | 26° |
| 2026-04-21 01:35 | 33.67459 | -117.86483 | 54 ft | 0 kts | 63° |